createdAt,value
2022-09-23T00:01:35.296Z,1.63
2022-09-23T00:04:05.415Z,1.52
2022-09-23T00:06:34.031Z,1.40
2022-09-23T00:09:02.723Z,1.42
2022-09-23T00:11:31.634Z,1.50
2022-09-23T00:14:01.524Z,1.77
2022-09-23T00:16:34.245Z,1.30
2022-09-23T00:19:06.139Z,1.30
2022-09-23T00:21:34.926Z,1.42
2022-09-23T00:24:03.788Z,1.10
2022-09-23T00:26:32.401Z,1.45
2022-09-23T00:29:00.988Z,1.23
2022-09-23T00:31:29.914Z,1.70
2022-09-23T00:34:01.070Z,1.30
2022-09-23T00:36:33.423Z,1.60
2022-09-23T00:39:04.544Z,1.42
2022-09-23T00:41:35.387Z,1.58
2022-09-23T00:44:42.220Z,1.70
2022-09-23T00:47:21.794Z,1.55
2022-09-23T00:50:00.347Z,1.17
2022-09-23T00:52:32.874Z,1.45
2022-09-23T00:55:06.425Z,1.33
2022-09-23T00:57:37.295Z,1.35
2022-09-23T01:00:08.714Z,1.42
2022-09-23T01:02:39.591Z,1.60
2022-09-23T01:05:10.380Z,1.50
2022-09-23T01:07:40.717Z,1.50
2022-09-23T01:10:13.235Z,1.63
2022-09-23T01:12:59.637Z,1.80
2022-09-23T01:15:40.650Z,1.33
2022-09-23T01:18:22.447Z,1.80
2022-09-23T01:21:33.828Z,1.70
2022-09-23T01:24:38.962Z,1.60
2022-09-23T01:27:25.559Z,1.30
2022-09-23T01:30:46.940Z,1.58
2022-09-23T01:33:25.426Z,1.70
2022-09-23T01:36:20.190Z,1.70
2022-09-23T01:39:01.300Z,1.77
2022-09-23T01:41:51.706Z,1.88
2022-09-23T01:44:29.285Z,1.58
2022-09-23T01:47:11.032Z,1.65
2022-09-23T01:49:49.568Z,1.83
2022-09-23T01:52:28.103Z,1.63
2022-09-23T01:55:03.551Z,2.15
2022-09-23T01:57:38.529Z,1.85
2022-09-23T02:00:14.622Z,2.17
2022-09-23T02:02:52.743Z,2.20
2022-09-23T02:05:36.017Z,2.10
2022-09-23T02:08:16.117Z,1.80
2022-09-23T02:10:50.418Z,1.80
2022-09-23T02:13:31.080Z,1.70
2022-09-23T02:16:05.548Z,2.03
2022-09-23T02:18:43.376Z,1.90
2022-09-23T02:21:12.170Z,2.05
2022-09-23T02:23:48.210Z,2.05
2022-09-23T02:26:24.037Z,2.08
2022-09-23T02:29:05.113Z,2.00
2022-09-23T02:31:41.912Z,2.03
2022-09-23T02:34:33.867Z,2.20
2022-09-23T02:37:14.542Z,1.80
2022-09-23T02:39:58.891Z,2.30
2022-09-23T02:42:40.205Z,1.98
2022-09-23T02:45:09.625Z,1.90
2022-09-23T02:47:41.812Z,2.00
2022-09-23T02:50:12.396Z,2.30
2022-09-23T02:52:41.194Z,2.00
2022-09-23T02:55:13.382Z,1.75
2022-09-23T02:57:42.090Z,1.85
2022-09-23T03:00:13.268Z,2.08
2022-09-23T03:03:07.430Z,1.80
2022-09-23T03:05:47.228Z,1.67
2022-09-23T03:08:37.424Z,1.50
2022-09-23T03:11:11.340Z,1.60
2022-09-23T03:14:08.025Z,1.65
2022-09-23T03:16:44.819Z,1.65
2022-09-23T03:19:28.667Z,2.15
2022-09-23T03:22:09.307Z,1.63
2022-09-23T03:24:41.327Z,4.22
2022-09-23T03:27:17.875Z,3.60
2022-09-23T03:29:51.542Z,2.28
2022-09-23T03:32:27.597Z,2.17
2022-09-23T03:35:00.352Z,2.13
2022-09-23T03:37:36.583Z,1.95
2022-09-23T03:40:14.682Z,2.00
2022-09-23T03:42:43.656Z,2.20
2022-09-23T03:45:18.412Z,2.85
2022-09-23T03:47:47.907Z,2.42
2022-09-23T03:50:17.788Z,2.53
2022-09-23T03:52:49.734Z,4.57
2022-09-23T03:55:19.917Z,14.35
2022-09-23T03:57:49.229Z,2.97
2022-09-23T04:00:18.113Z,4.88
2022-09-23T04:02:46.881Z,2.85
2022-09-23T04:05:16.029Z,2.00
2022-09-23T04:07:44.631Z,1.73
2022-09-23T04:10:14.592Z,2.22
2022-09-23T04:12:43.164Z,1.10
2022-09-23T04:15:12.448Z,1.33
2022-09-23T04:17:41.986Z,1.85
2022-09-23T04:20:11.313Z,1.95
2022-09-23T04:22:39.941Z,1.90
2022-09-23T04:25:10.196Z,2.40
2022-09-23T04:27:40.249Z,4.10
2022-09-23T04:30:10.549Z,3.65
2022-09-23T04:32:39.136Z,2.13
2022-09-23T04:35:09.477Z,2.00
2022-09-23T04:37:38.109Z,1.75
2022-09-23T04:40:08.704Z,1.60
2022-09-23T04:42:37.412Z,1.52
2022-09-23T04:45:08.984Z,1.67
2022-09-23T04:47:37.647Z,1.67
2022-09-23T04:50:07.563Z,1.65
2022-09-23T04:52:36.287Z,1.75
2022-09-23T04:55:09.113Z,2.05
2022-09-23T04:57:39.640Z,1.85
2022-09-23T05:00:12.512Z,2.95
2022-09-23T05:02:45.434Z,1.60
2022-09-23T05:05:15.795Z,1.15
2022-09-23T05:07:44.521Z,1.35
2022-09-23T05:10:13.192Z,1.67
2022-09-23T05:12:41.865Z,1.33
2022-09-23T05:15:13.219Z,1.85
2022-09-23T05:17:42.896Z,2.13
2022-09-23T05:20:13.659Z,1.90
2022-09-23T05:22:42.349Z,1.80
2022-09-23T05:25:11.256Z,1.85
2022-09-23T05:27:40.141Z,1.90
2022-09-23T05:30:12.424Z,2.03
2022-09-23T05:32:41.067Z,1.73
2022-09-23T05:35:10.396Z,3.53
2022-09-23T05:37:39.022Z,2.67
2022-09-23T05:40:08.564Z,4.13
2022-09-23T05:42:37.293Z,8.43
2022-09-23T05:45:07.733Z,7.82
2022-09-23T05:47:38.307Z,6.53
2022-09-23T05:50:08.176Z,6.10
2022-09-23T05:52:36.828Z,6.10
2022-09-23T05:55:06.976Z,6.22
2022-09-23T05:57:35.680Z,5.13
2022-09-23T06:00:06.012Z,4.60
2022-09-23T06:02:34.864Z,6.25
2022-09-23T06:05:05.293Z,4.90
2022-09-23T06:07:38.206Z,4.00
2022-09-23T06:10:08.452Z,3.25
2022-09-23T06:12:37.129Z,3.33
2022-09-23T06:15:07.299Z,3.58
2022-09-23T06:17:35.959Z,2.78
2022-09-23T06:20:06.617Z,3.78
2022-09-23T06:22:38.723Z,3.58
2022-09-23T06:25:09.380Z,3.45
2022-09-23T06:27:38.113Z,3.63
2022-09-23T06:30:08.331Z,3.38
2022-09-23T06:32:36.939Z,3.70
2022-09-23T06:35:16.949Z,4.30
2022-09-23T06:37:48.133Z,4.45
2022-09-23T06:40:17.634Z,5.05
2022-09-23T06:42:50.230Z,5.32
2022-09-23T06:45:21.057Z,6.32
2022-09-23T06:47:56.341Z,6.22
2022-09-23T06:50:28.489Z,5.90
2022-09-23T06:52:58.569Z,7.20
2022-09-23T06:55:28.569Z,5.85
2022-09-23T06:58:00.034Z,5.75
2022-09-23T07:00:29.385Z,5.30
2022-09-23T07:02:58.345Z,5.25
2022-09-23T07:05:28.494Z,4.68
2022-09-23T07:07:57.396Z,3.90
2022-09-23T07:10:27.474Z,4.18
2022-09-23T07:12:56.469Z,3.42
2022-09-23T07:15:25.264Z,3.38
2022-09-23T07:17:54.102Z,2.53
2022-09-23T07:20:22.955Z,2.53
2022-09-23T07:22:54.317Z,2.92
2022-09-23T07:25:23.669Z,2.42
2022-09-23T07:27:52.363Z,2.38
2022-09-23T07:30:24.936Z,2.58
2022-09-23T07:32:54.580Z,2.97
2022-09-23T07:35:23.443Z,2.45
2022-09-23T07:37:53.698Z,3.53
2022-09-23T07:40:23.542Z,3.10
2022-09-23T07:42:52.421Z,3.80
2022-09-23T07:45:23.672Z,4.18
2022-09-23T07:47:52.337Z,4.13
2022-09-23T07:50:22.629Z,3.53
2022-09-23T07:52:53.506Z,2.90
2022-09-23T07:55:22.633Z,2.90
2022-09-23T07:57:51.567Z,3.20
2022-09-23T08:00:21.282Z,2.63
2022-09-23T08:02:53.109Z,3.50
2022-09-23T08:05:22.818Z,2.45
2022-09-23T08:07:53.256Z,2.50
2022-09-23T08:10:22.096Z,4.25
2022-09-23T08:12:50.732Z,2.60
2022-09-23T08:15:19.442Z,2.35
2022-09-23T08:17:48.426Z,2.50
2022-09-23T08:20:31.194Z,2.60
2022-09-23T08:23:01.756Z,2.25
2022-09-23T08:25:34.319Z,2.30
2022-09-23T08:28:04.323Z,2.13
2022-09-23T08:30:33.182Z,2.38
2022-09-23T08:33:01.915Z,4.85
2022-09-23T08:35:31.566Z,3.63
2022-09-23T08:38:01.771Z,2.42
2022-09-23T08:40:30.970Z,2.38
2022-09-23T08:43:01.378Z,2.13
2022-09-23T08:45:30.447Z,1.98
2022-09-23T08:48:12.181Z,2.35
2022-09-23T08:50:46.131Z,2.35
2022-09-23T08:53:27.412Z,2.20
2022-09-23T08:56:00.887Z,2.40
2022-09-23T08:58:58.134Z,2.45
2022-09-23T09:01:36.248Z,2.30
2022-09-23T09:04:16.604Z,2.50
2022-09-23T09:06:54.068Z,2.30
2022-09-23T09:09:34.004Z,2.47
2022-09-23T09:12:14.654Z,2.30
2022-09-23T09:14:54.063Z,1.90
2022-09-23T09:17:36.703Z,2.45
2022-09-23T09:20:23.424Z,2.70
2022-09-23T09:22:58.032Z,2.63
2022-09-23T09:25:43.640Z,2.45
2022-09-23T09:28:19.895Z,2.80
2022-09-23T09:30:56.245Z,2.45
2022-09-23T09:33:33.378Z,2.22
2022-09-23T09:36:16.571Z,2.10
2022-09-23T09:38:45.374Z,2.03
2022-09-23T09:41:21.408Z,2.30
2022-09-23T09:43:53.586Z,2.40
2022-09-23T09:46:46.066Z,3.70
2022-09-23T09:49:26.123Z,2.20
2022-09-23T09:52:15.970Z,3.90
2022-09-23T09:54:44.784Z,2.83
2022-09-23T09:57:35.133Z,2.42
2022-09-23T10:00:36.339Z,3.33
2022-09-23T10:03:16.594Z,2.35
2022-09-23T10:05:52.371Z,2.47
2022-09-23T10:08:28.159Z,2.40
2022-09-23T10:11:04.828Z,2.33
2022-09-23T10:13:35.313Z,2.20
2022-09-23T10:16:06.825Z,2.47
2022-09-23T10:18:40.230Z,1.70
2022-09-23T10:21:13.448Z,1.50
2022-09-23T10:23:45.834Z,1.30
2022-09-23T10:26:17.548Z,1.35
2022-09-23T10:28:55.669Z,1.40
2022-09-23T10:31:27.913Z,1.20
2022-09-23T10:34:00.618Z,1.58
2022-09-23T10:36:31.833Z,1.30
2022-09-23T10:39:16.712Z,1.30
2022-09-23T10:42:17.374Z,1.00
2022-09-23T10:45:20.243Z,0.98
2022-09-23T10:48:01.949Z,1.10
2022-09-23T10:50:42.857Z,1.30
2022-09-23T10:53:26.141Z,1.55
2022-09-23T10:56:23.632Z,1.73
2022-09-23T10:59:40.857Z,1.58
2022-09-23T11:02:42.627Z,2.00
2022-09-23T11:05:37.908Z,2.00
2022-09-23T11:08:30.757Z,1.80
2022-09-23T11:11:18.691Z,1.60
2022-09-23T11:14:15.893Z,1.77
2022-09-23T11:17:08.037Z,1.80
2022-09-23T11:20:08.434Z,1.30
2022-09-23T11:23:21.458Z,1.65
2022-09-23T11:26:02.824Z,1.40
2022-09-23T11:28:57.240Z,1.65
2022-09-23T11:31:38.907Z,1.75
2022-09-23T11:34:40.298Z,1.98
2022-09-23T11:37:18.558Z,1.45
2022-09-23T11:39:57.506Z,1.45
2022-09-23T11:42:32.968Z,2.47
2022-09-23T11:45:09.721Z,1.40
2022-09-23T11:47:48.457Z,1.13
2022-09-23T11:50:26.177Z,1.35
2022-09-23T11:53:07.197Z,1.08
2022-09-23T11:55:55.417Z,0.90
2022-09-23T11:58:32.775Z,1.48
2022-09-23T12:01:10.651Z,1.02
2022-09-23T12:03:50.504Z,0.80
2022-09-23T12:06:26.984Z,1.23
2022-09-23T12:09:03.720Z,1.20
2022-09-23T12:11:42.475Z,1.27
2022-09-23T12:14:22.026Z,4.18
2022-09-23T12:17:22.131Z,1.33
2022-09-23T12:20:23.298Z,1.35
2022-09-23T12:23:13.484Z,1.42
2022-09-23T12:25:49.867Z,1.02
2022-09-23T12:28:23.793Z,0.85
2022-09-23T12:30:57.600Z,1.00
2022-09-23T12:33:30.082Z,0.90
2022-09-23T12:36:06.550Z,0.98
2022-09-23T12:38:38.625Z,1.00
2022-09-23T12:41:28.581Z,0.82
2022-09-23T12:44:14.065Z,1.05
2022-09-23T12:46:44.283Z,0.95
2022-09-23T12:49:27.191Z,0.88
2022-09-23T12:52:26.363Z,0.68
2022-09-23T12:55:00.367Z,0.90
2022-09-23T12:57:43.809Z,0.93
2022-09-23T13:00:24.370Z,1.05
2022-09-23T13:03:16.002Z,1.48
2022-09-23T13:06:06.646Z,2.17
2022-09-23T13:08:40.315Z,1.13
2022-09-23T13:11:23.749Z,1.10
2022-09-23T13:13:57.603Z,1.02
2022-09-23T13:16:34.441Z,0.80
2022-09-23T13:19:06.021Z,1.05
2022-09-23T13:22:09.360Z,0.90
2022-09-23T13:24:53.678Z,1.20
2022-09-23T13:27:31.469Z,1.10
2022-09-23T13:30:07.847Z,3.63
2022-09-23T13:32:42.267Z,1.00
2022-09-23T13:35:26.197Z,1.25
2022-09-23T13:37:55.367Z,1.50
2022-09-23T13:40:27.199Z,9.98
2022-09-23T13:43:00.968Z,1.40
2022-09-23T13:45:33.961Z,1.10
2022-09-23T13:48:07.507Z,1.00
2022-09-23T13:50:41.671Z,1.00
2022-09-23T13:53:18.220Z,1.02
2022-09-23T13:55:51.642Z,0.88
2022-09-23T13:58:24.119Z,0.80
2022-09-23T14:00:54.268Z,0.90
2022-09-23T14:03:36.290Z,0.90
2022-09-23T14:06:13.025Z,1.17
2022-09-23T14:08:46.228Z,1.00
2022-09-23T14:11:18.030Z,1.02
2022-09-23T14:13:49.859Z,1.02
2022-09-23T14:16:20.185Z,1.20
2022-09-23T14:18:52.945Z,1.02
2022-09-23T14:21:31.494Z,0.93
2022-09-23T14:24:14.532Z,0.88
2022-09-23T14:26:48.098Z,2.08
2022-09-23T14:29:21.134Z,2.53
2022-09-23T14:31:57.824Z,1.65
2022-09-23T14:34:50.460Z,1.08
2022-09-23T14:37:48.802Z,1.20
2022-09-23T14:40:22.041Z,0.93
2022-09-23T14:42:58.791Z,1.13
2022-09-23T14:45:31.657Z,1.10
2022-09-23T14:48:06.945Z,1.25
2022-09-23T14:50:40.772Z,1.50
2022-09-23T14:53:38.247Z,1.50
2022-09-23T14:56:16.038Z,1.30
2022-09-23T14:58:57.420Z,1.30
2022-09-23T15:01:37.982Z,1.30
2022-09-23T15:04:30.538Z,1.30
2022-09-23T15:07:05.256Z,2.95
2022-09-23T15:09:39.546Z,1.10
2022-09-23T15:12:13.983Z,1.30
2022-09-23T15:14:50.569Z,1.45
2022-09-23T15:17:33.216Z,0.90
2022-09-23T15:20:08.457Z,1.00
2022-09-23T15:22:45.723Z,1.60
2022-09-23T15:25:21.099Z,2.42
2022-09-23T15:28:17.161Z,1.85
2022-09-23T15:30:46.928Z,1.30
2022-09-23T15:33:16.595Z,1.75
2022-09-23T15:35:50.182Z,1.50
2022-09-23T15:38:18.903Z,1.52
2022-09-23T15:40:48.765Z,1.45
2022-09-23T15:43:21.858Z,3.92
2022-09-23T15:45:53.435Z,2.25
2022-09-23T15:48:27.046Z,10.00
2022-09-23T15:50:58.540Z,2.95
2022-09-23T15:53:30.047Z,2.13
2022-09-23T15:55:58.782Z,2.33
2022-09-23T15:58:28.082Z,2.30
2022-09-23T16:00:58.158Z,2.55
2022-09-23T16:03:29.481Z,2.35
2022-09-23T16:06:03.277Z,1.77
2022-09-23T16:08:33.204Z,2.10
2022-09-23T16:11:02.205Z,1.88
2022-09-23T16:13:30.898Z,1.40
2022-09-23T16:15:59.602Z,1.83
2022-09-23T16:18:28.351Z,1.70
2022-09-23T16:20:59.575Z,1.38
2022-09-23T16:23:38.678Z,1.50
2022-09-23T16:26:15.370Z,1.33
2022-09-23T16:28:44.487Z,1.27
2022-09-23T16:31:14.751Z,1.10
2022-09-23T16:33:43.537Z,0.98
2022-09-23T16:36:22.731Z,1.15
2022-09-23T16:38:51.544Z,0.88
2022-09-23T16:41:20.325Z,1.10
2022-09-23T16:43:49.187Z,1.23
2022-09-23T16:46:19.705Z,1.25
2022-09-23T16:48:52.683Z,1.23
2022-09-23T16:51:26.589Z,1.40
2022-09-23T16:53:57.547Z,1.02
2022-09-23T16:56:29.781Z,2.00
2022-09-23T16:58:58.930Z,1.50
2022-09-23T17:01:47.927Z,1.10
2022-09-23T17:04:19.562Z,1.20
2022-09-23T17:06:51.717Z,1.30
2022-09-23T17:09:23.057Z,1.25
2022-09-23T17:12:05.859Z,1.20
2022-09-23T17:14:34.780Z,1.20
2022-09-23T17:17:03.349Z,1.20
2022-09-23T17:19:33.902Z,1.45
2022-09-23T17:22:03.929Z,1.17
2022-09-23T17:24:32.538Z,1.23
2022-09-23T17:27:01.133Z,1.20
2022-09-23T17:29:30.034Z,1.33
2022-09-23T17:31:58.800Z,1.50
2022-09-23T17:34:28.931Z,1.33
2022-09-23T17:36:57.536Z,2.03
2022-09-23T17:39:27.693Z,2.90
2022-09-23T17:41:58.694Z,1.83
2022-09-23T17:44:27.373Z,1.27
2022-09-23T17:46:56.013Z,1.25
2022-09-23T17:49:24.776Z,1.23
2022-09-23T17:51:53.358Z,1.23
2022-09-23T17:54:21.939Z,1.50
2022-09-23T17:56:52.077Z,1.38
2022-09-23T17:59:20.738Z,1.27
2022-09-23T18:01:49.535Z,1.50
2022-09-23T18:04:18.246Z,1.90
2022-09-23T18:06:47.378Z,1.58
2022-09-23T18:09:16.080Z,1.70
2022-09-23T18:11:48.154Z,2.08
2022-09-23T18:14:20.725Z,1.50
2022-09-23T18:16:52.489Z,1.50
2022-09-23T18:19:24.513Z,2.00
2022-09-23T18:21:57.451Z,2.95
2022-09-23T18:24:34.053Z,3.67
2022-09-23T18:27:03.016Z,2.65
2022-09-23T18:29:35.160Z,1.95
2022-09-23T18:32:04.520Z,1.70
2022-09-23T18:34:33.188Z,1.90
2022-09-23T18:37:01.834Z,1.60
2022-09-23T18:39:30.667Z,1.83
2022-09-23T18:41:59.628Z,2.03
2022-09-23T18:44:28.227Z,1.60
2022-09-23T18:46:58.302Z,1.55
2022-09-23T18:49:44.392Z,1.80
2022-09-23T18:52:12.968Z,2.13
2022-09-23T18:54:42.634Z,2.38
2022-09-23T18:57:14.793Z,1.67
2022-09-23T18:59:44.476Z,2.00
2022-09-23T19:02:15.444Z,2.00
2022-09-23T19:04:44.107Z,2.50
2022-09-23T19:07:12.707Z,2.28
2022-09-23T19:09:41.376Z,2.22
2022-09-23T19:12:09.975Z,2.80
2022-09-23T19:14:38.628Z,3.25
2022-09-23T19:17:08.826Z,2.53
2022-09-23T19:19:39.230Z,2.13
2022-09-23T19:22:08.253Z,2.40
2022-09-23T19:24:36.858Z,2.15
2022-09-23T19:27:05.561Z,2.20
2022-09-23T19:29:34.199Z,2.78
2022-09-23T19:32:03.597Z,3.70
2022-09-23T19:34:34.810Z,3.55
2022-09-23T19:37:05.332Z,3.47
2022-09-23T19:39:34.910Z,2.70
2022-09-23T19:42:03.818Z,2.90
2022-09-23T19:44:32.602Z,2.08
2022-09-23T19:47:01.338Z,2.40
2022-09-23T19:49:31.144Z,1.95
2022-09-23T19:52:00.468Z,2.30
2022-09-23T19:54:30.529Z,2.05
2022-09-23T19:56:59.473Z,1.88
2022-09-23T19:59:28.302Z,1.90
2022-09-23T20:01:57.298Z,2.15
2022-09-23T20:04:26.286Z,2.17
2022-09-23T20:06:54.986Z,2.10
2022-09-23T20:09:23.791Z,2.00
2022-09-23T20:11:53.925Z,2.25
2022-09-23T20:14:24.445Z,2.53
2022-09-23T20:16:58.223Z,2.10
2022-09-23T20:19:27.536Z,5.22
2022-09-23T20:22:10.004Z,3.10
2022-09-23T20:24:38.631Z,3.00
2022-09-23T20:27:12.105Z,2.90
2022-09-23T20:29:40.932Z,2.10
2022-09-23T20:32:11.433Z,2.53
2022-09-23T20:34:41.355Z,5.28
2022-09-23T20:37:10.912Z,5.05
2022-09-23T20:39:39.697Z,3.70
2022-09-23T20:42:10.250Z,2.58
2022-09-23T20:44:38.918Z,2.40
2022-09-23T20:47:08.216Z,3.10
2022-09-23T20:49:37.857Z,3.53
2022-09-23T20:52:06.531Z,2.90
2022-09-23T20:54:38.879Z,3.20
2022-09-23T20:57:09.480Z,3.40
2022-09-23T20:59:38.327Z,5.90
2022-09-23T21:02:08.584Z,9.07
2022-09-23T21:04:37.561Z,14.65
2022-09-23T21:07:06.235Z,16.65
2022-09-23T21:09:34.900Z,15.65
2022-09-23T21:12:04.265Z,11.73
2022-09-23T21:14:34.273Z,9.77
2022-09-23T21:17:02.932Z,9.23
2022-09-23T21:19:31.619Z,8.43
2022-09-23T21:22:00.284Z,6.80
2022-09-23T21:27:17.676Z,5.80
2022-09-23T21:29:49.077Z,5.18
2022-09-23T21:32:17.736Z,4.55
2022-09-23T21:34:46.534Z,4.00
2022-09-23T21:37:15.104Z,4.25
2022-09-23T21:40:03.861Z,3.83
2022-09-23T21:42:33.084Z,3.13
2022-09-23T21:45:05.268Z,2.60
2022-09-23T21:47:33.959Z,2.55
2022-09-23T21:50:02.727Z,2.65
2022-09-23T21:52:31.439Z,3.20
2022-09-23T21:55:00.297Z,5.97
2022-09-23T21:57:31.573Z,6.40
2022-09-23T22:00:00.285Z,6.82
2022-09-23T22:02:30.378Z,7.88
2022-09-23T22:04:59.035Z,9.52
2022-09-23T22:07:27.630Z,8.13
2022-09-23T22:09:56.211Z,4.82
2022-09-23T22:12:25.002Z,4.22
2022-09-23T22:14:53.617Z,8.23
2022-09-23T22:17:39.171Z,9.95
2022-09-23T22:20:09.048Z,13.77
2022-09-23T22:22:37.596Z,11.30
2022-09-23T22:25:07.586Z,15.27
2022-09-23T22:27:56.192Z,20.00
2022-09-23T22:30:42.457Z,17.00
2022-09-23T22:33:16.232Z,19.25
2022-09-23T22:35:44.918Z,21.77
2022-09-23T22:38:13.467Z,15.98
2022-09-23T22:40:44.339Z,9.20
2022-09-23T22:43:13.001Z,4.63
2022-09-23T22:45:50.173Z,6.88
2022-09-23T22:48:20.293Z,7.40
2022-09-23T22:50:48.937Z,6.78
2022-09-23T22:53:17.537Z,6.68
2022-09-23T22:55:46.534Z,5.75
2022-09-23T22:58:31.217Z,4.53
2022-09-23T23:01:02.572Z,4.65
2022-09-23T23:03:34.508Z,3.80
2022-09-23T23:06:03.845Z,3.50
2022-09-23T23:08:33.587Z,4.18
2022-09-23T23:11:06.509Z,3.67
2022-09-23T23:13:35.240Z,3.13
2022-09-23T23:16:06.542Z,7.18
2022-09-23T23:18:40.195Z,3.20
2022-09-23T23:21:12.543Z,3.30
2022-09-23T23:23:42.792Z,3.20
2022-09-23T23:26:13.860Z,3.03
2022-09-23T23:28:44.722Z,2.70
2022-09-23T23:31:17.222Z,2.60
2022-09-23T23:33:48.074Z,2.90
2022-09-23T23:36:20.459Z,2.92
2022-09-23T23:38:52.360Z,2.53
2022-09-23T23:41:23.697Z,2.75
2022-09-23T23:43:57.939Z,2.88
2022-09-23T23:46:28.574Z,2.75
2022-09-23T23:48:59.973Z,2.65
2022-09-23T23:51:29.826Z,2.60
2022-09-23T23:54:00.384Z,2.50
2022-09-23T23:56:31.801Z,2.80
2022-09-23T23:59:02.914Z,2.75
